createdAt,value
2022-10-03T00:03:44.602Z,72.30
2022-10-03T00:07:44.798Z,72.40
2022-10-03T00:12:03.753Z,72.40
2022-10-03T00:16:30.025Z,73.90
2022-10-03T00:20:39.401Z,74.20
2022-10-03T00:24:40.621Z,73.70
2022-10-03T00:28:42.714Z,73.30
2022-10-03T00:33:04.265Z,74.40
2022-10-03T00:37:14.383Z,73.20
2022-10-03T00:41:34.800Z,73.30
2022-10-03T00:45:22.738Z,72.30
2022-10-03T00:49:16.934Z,72.00
2022-10-03T00:53:28.916Z,72.30
2022-10-03T00:57:55.556Z,74.30
2022-10-03T01:01:48.520Z,74.40
2022-10-03T01:05:49.002Z,72.90
2022-10-03T01:09:52.435Z,72.80
2022-10-03T01:19:05.057Z,74.20
2022-10-03T01:23:25.460Z,73.30
2022-10-03T01:27:11.669Z,74.20
2022-10-03T01:31:04.889Z,72.80
2022-10-03T01:34:57.391Z,73.20
2022-10-03T01:39:00.629Z,72.90
2022-10-03T01:42:53.552Z,74.50
2022-10-03T01:46:42.822Z,73.50
2022-10-03T01:51:13.273Z,73.10
2022-10-03T01:55:01.103Z,74.30
2022-10-03T01:58:52.156Z,73.10
2022-10-03T02:02:42.978Z,73.20
2022-10-03T02:06:33.495Z,72.80
2022-10-03T02:10:32.019Z,73.30
2022-10-03T02:14:19.931Z,73.20
2022-10-03T02:18:22.825Z,73.00
2022-10-03T02:22:36.521Z,73.30
2022-10-03T02:27:02.459Z,73.90
2022-10-03T02:31:02.744Z,74.80
2022-10-03T02:35:21.271Z,74.50
2022-10-03T02:39:12.407Z,74.80
2022-10-03T02:43:20.362Z,73.50
2022-10-03T02:47:40.230Z,75.00
2022-10-03T02:52:05.720Z,75.20
2022-10-03T02:55:50.605Z,75.30
2022-10-03T02:59:57.380Z,73.90
2022-10-03T03:04:09.120Z,74.10
2022-10-03T03:07:51.192Z,74.80
2022-10-03T03:11:45.266Z,74.90
2022-10-03T03:16:05.639Z,74.40
2022-10-03T03:20:26.205Z,75.10
2022-10-03T03:24:20.070Z,75.10
2022-10-03T03:28:23.593Z,74.40
2022-10-03T03:32:40.810Z,74.50
2022-10-03T03:36:44.231Z,75.50
2022-10-03T03:40:59.810Z,74.50
2022-10-03T03:44:56.772Z,75.20
2022-10-03T03:48:54.112Z,74.50
2022-10-03T03:53:07.291Z,73.90
2022-10-03T03:57:10.392Z,75.30
2022-10-03T04:01:29.348Z,74.60
2022-10-03T04:05:29.479Z,75.30
2022-10-03T04:09:42.375Z,75.10
2022-10-03T04:13:24.505Z,74.90
2022-10-03T04:17:58.576Z,74.00
2022-10-03T04:22:05.136Z,75.40
2022-10-03T04:26:06.952Z,75.50
2022-10-03T04:30:21.167Z,75.00
2022-10-03T04:34:32.784Z,75.30
2022-10-03T04:38:57.856Z,74.50
2022-10-03T04:42:56.313Z,75.80
2022-10-03T04:46:43.661Z,75.70
2022-10-03T04:51:00.489Z,74.70
2022-10-03T04:54:48.559Z,75.20
2022-10-03T04:59:20.875Z,74.70
2022-10-03T05:03:29.052Z,76.40
2022-10-03T05:07:56.002Z,76.00
2022-10-03T05:12:02.081Z,76.40
2022-10-03T05:16:06.586Z,74.90
2022-10-03T05:19:54.686Z,75.00
2022-10-03T05:24:03.350Z,75.40
2022-10-03T05:27:51.869Z,76.60
2022-10-03T05:32:00.961Z,75.40
2022-10-03T05:35:51.586Z,76.80
2022-10-03T05:39:45.970Z,76.00
2022-10-03T05:43:47.027Z,75.50
2022-10-03T05:47:55.789Z,76.70
2022-10-03T05:51:54.085Z,75.40
2022-10-03T05:56:00.620Z,76.40
2022-10-03T06:00:01.103Z,76.00
2022-10-03T06:04:06.384Z,75.40
2022-10-03T06:08:07.674Z,76.60
2022-10-03T06:12:03.807Z,75.60
2022-10-03T06:16:17.218Z,76.00
2022-10-03T06:20:44.044Z,76.50
2022-10-03T06:24:59.693Z,76.60
2022-10-03T06:28:56.567Z,76.60
2022-10-03T06:33:00.579Z,75.40
2022-10-03T06:37:07.362Z,76.40
2022-10-03T06:41:08.258Z,75.80
2022-10-03T06:45:30.693Z,76.40
2022-10-03T06:50:01.670Z,75.90
2022-10-03T06:54:17.889Z,76.60
2022-10-03T06:58:21.979Z,76.50
2022-10-03T07:02:26.646Z,76.70
2022-10-03T07:06:18.408Z,76.50
2022-10-03T07:10:28.062Z,75.60
2022-10-03T07:14:48.677Z,76.10
2022-10-03T07:18:54.694Z,76.50
2022-10-03T07:23:15.197Z,76.40
2022-10-03T07:27:04.881Z,76.50
2022-10-03T07:31:01.938Z,75.70
2022-10-03T07:34:50.117Z,75.80
2022-10-03T07:38:50.923Z,75.70
2022-10-03T07:42:46.671Z,75.60
2022-10-03T07:47:00.282Z,76.00
2022-10-03T07:51:01.621Z,75.70
2022-10-03T07:54:59.851Z,76.10
2022-10-03T07:59:00.292Z,76.70
2022-10-03T08:03:08.571Z,76.50
2022-10-03T08:07:32.137Z,76.10
2022-10-03T08:11:28.289Z,74.60
2022-10-03T08:15:34.553Z,74.20
2022-10-03T08:20:11.104Z,73.80
2022-10-03T08:24:08.200Z,73.80
2022-10-03T08:28:17.618Z,74.60
2022-10-03T08:32:37.502Z,74.20
2022-10-03T08:36:45.604Z,74.00
2022-10-03T08:41:05.560Z,74.10
2022-10-03T08:44:59.563Z,73.30
2022-10-03T08:49:12.157Z,73.90
2022-10-03T08:53:31.854Z,72.90
2022-10-03T08:57:14.217Z,71.60
2022-10-03T09:01:08.558Z,72.60
2022-10-03T09:05:28.604Z,72.50
2022-10-03T09:09:39.445Z,70.20
2022-10-03T09:13:43.461Z,70.80
2022-10-03T09:17:37.564Z,70.00
2022-10-03T09:21:37.276Z,70.30
2022-10-03T09:26:06.916Z,71.00
2022-10-03T09:30:07.524Z,75.90
2022-10-03T09:34:11.016Z,76.40
2022-10-03T09:38:30.786Z,63.70
2022-10-03T09:42:24.952Z,56.40
2022-10-03T09:46:35.915Z,60.00
2022-10-03T09:50:52.325Z,55.10
2022-10-03T09:55:07.085Z,57.20
2022-10-03T09:59:05.808Z,58.40
2022-10-03T10:02:57.176Z,61.30
2022-10-03T10:07:00.843Z,62.00
2022-10-03T10:11:08.712Z,61.70
2022-10-03T10:15:01.192Z,60.00
2022-10-03T10:19:07.487Z,60.30
2022-10-03T10:22:55.596Z,60.20
2022-10-03T10:26:58.837Z,60.90
2022-10-03T10:30:51.784Z,59.90
2022-10-03T10:34:55.263Z,60.90
2022-10-03T10:39:05.475Z,60.10
2022-10-03T10:43:15.829Z,59.80
2022-10-03T10:47:23.697Z,60.50
2022-10-03T10:51:25.615Z,60.60
2022-10-03T10:55:26.347Z,61.00
2022-10-03T10:59:33.125Z,59.90
2022-10-03T11:03:50.666Z,55.20
2022-10-03T11:08:29.629Z,52.20
2022-10-03T11:12:30.049Z,50.50
2022-10-03T11:16:31.805Z,55.70
2022-10-03T11:20:51.745Z,53.40
2022-10-03T11:24:59.687Z,49.50
2022-10-03T11:29:41.162Z,49.90
2022-10-03T11:33:35.906Z,45.90
2022-10-03T11:37:27.050Z,50.30
2022-10-03T11:41:16.649Z,51.30
2022-10-03T11:45:00.173Z,50.80
2022-10-03T11:48:48.768Z,46.90
2022-10-03T11:52:42.399Z,49.70
2022-10-03T11:56:33.390Z,49.40
2022-10-03T12:00:21.683Z,49.50
2022-10-03T12:04:03.694Z,48.90
2022-10-03T12:08:23.319Z,50.20
2022-10-03T12:12:28.258Z,50.10
2022-10-03T12:16:27.741Z,50.90
2022-10-03T12:20:25.092Z,51.20
2022-10-03T12:24:42.978Z,51.50
2022-10-03T12:28:33.427Z,50.70
2022-10-03T12:32:20.923Z,52.60
2022-10-03T12:36:13.964Z,53.40
2022-10-03T12:40:10.866Z,52.50
2022-10-03T12:44:11.980Z,51.90
2022-10-03T12:48:16.549Z,52.80
2022-10-03T12:52:02.283Z,53.20
2022-10-03T12:55:47.050Z,54.10
2022-10-03T12:59:43.909Z,54.40
2022-10-03T13:03:38.773Z,54.80
2022-10-03T13:07:21.016Z,54.20
2022-10-03T13:11:41.027Z,53.70
2022-10-03T13:15:48.323Z,53.50
2022-10-03T13:19:58.420Z,54.40
2022-10-03T13:23:40.693Z,54.10
2022-10-03T13:27:53.534Z,54.80
2022-10-03T13:32:05.535Z,54.70
2022-10-03T13:36:04.057Z,55.10
2022-10-03T13:39:51.393Z,54.80
2022-10-03T13:43:39.415Z,54.80
2022-10-03T13:47:27.602Z,54.60
2022-10-03T13:51:26.516Z,54.60
2022-10-03T13:55:11.879Z,55.10
2022-10-03T13:59:17.438Z,55.30
2022-10-03T14:03:14.181Z,55.70
2022-10-03T14:07:06.218Z,55.40
2022-10-03T14:11:06.111Z,55.40
2022-10-03T14:15:07.318Z,55.50
2022-10-03T14:19:17.973Z,55.20
2022-10-03T14:23:24.257Z,54.60
2022-10-03T14:27:33.209Z,54.90
2022-10-03T14:31:31.951Z,54.80
2022-10-03T14:35:25.567Z,55.40
2022-10-03T14:39:16.377Z,55.40
2022-10-03T14:43:17.024Z,55.40
2022-10-03T14:47:07.786Z,55.70
2022-10-03T14:50:55.120Z,56.30
2022-10-03T14:54:39.998Z,56.60
2022-10-03T14:58:29.799Z,56.60
2022-10-03T15:02:38.903Z,56.50
2022-10-03T15:06:35.682Z,57.10
2022-10-03T15:10:26.083Z,57.00
2022-10-03T15:14:10.671Z,57.30
2022-10-03T15:18:00.916Z,57.00
2022-10-03T15:21:43.913Z,57.10
2022-10-03T15:25:53.110Z,57.40
2022-10-03T15:29:38.378Z,58.20
2022-10-03T15:33:32.581Z,57.80
2022-10-03T15:37:20.188Z,57.90
2022-10-03T15:41:05.847Z,58.00
2022-10-03T15:45:01.323Z,58.50
2022-10-03T15:48:47.362Z,59.30
2022-10-03T15:52:52.733Z,58.90
2022-10-03T15:56:44.000Z,60.50
2022-10-03T16:00:31.690Z,60.60
2022-10-03T16:04:28.139Z,60.30
2022-10-03T16:08:18.418Z,60.80
2022-10-03T16:12:16.736Z,60.40
2022-10-03T16:16:24.688Z,60.50
2022-10-03T16:20:28.511Z,61.20
2022-10-03T16:24:26.802Z,60.70
2022-10-03T16:28:17.534Z,61.80
2022-10-03T16:32:17.384Z,61.20
2022-10-03T16:52:59.687Z,62.70
2022-10-03T16:56:48.421Z,61.90
2022-10-03T17:01:09.405Z,62.30
2022-10-03T17:05:15.935Z,63.40
2022-10-03T17:09:13.213Z,63.00
2022-10-03T17:13:03.403Z,62.40
2022-10-03T17:17:25.458Z,62.60
2022-10-03T17:21:25.973Z,64.90
2022-10-03T17:25:45.049Z,64.60
2022-10-03T17:29:44.580Z,66.10
2022-10-03T17:33:54.033Z,66.00
2022-10-03T17:37:42.421Z,65.10
2022-10-03T17:41:56.919Z,64.20
2022-10-03T17:45:54.416Z,67.30
2022-10-03T17:50:06.325Z,66.50
2022-10-03T17:53:57.789Z,68.60
2022-10-03T17:57:54.790Z,66.00
2022-10-03T18:01:46.285Z,67.70
2022-10-03T18:05:49.379Z,66.80
2022-10-03T18:09:41.088Z,70.80
2022-10-03T18:13:29.118Z,67.30
2022-10-03T18:17:30.662Z,67.60
2022-10-03T18:21:19.004Z,69.80
2022-10-03T18:26:15.078Z,67.70
2022-10-03T18:30:15.633Z,71.90
2022-10-03T18:34:12.838Z,71.30
2022-10-03T18:38:03.637Z,70.40
2022-10-03T18:41:52.381Z,71.30
2022-10-03T18:45:44.377Z,69.60
2022-10-03T18:49:34.411Z,71.60
2022-10-03T18:53:35.567Z,70.90
2022-10-03T18:57:37.717Z,70.50
2022-10-03T19:01:46.800Z,73.10
2022-10-03T19:05:35.710Z,73.10
2022-10-03T19:09:23.600Z,70.60
2022-10-03T19:13:30.873Z,70.80
2022-10-03T19:17:36.590Z,73.90
2022-10-03T19:21:21.113Z,71.90
2022-10-03T19:25:05.954Z,71.10
2022-10-03T19:28:51.286Z,71.30
2022-10-03T19:33:01.656Z,71.40
2022-10-03T19:36:44.099Z,74.40
2022-10-03T19:41:00.255Z,71.60
2022-10-03T19:44:42.654Z,74.80
2022-10-03T19:48:27.441Z,71.70
2022-10-03T19:52:15.641Z,72.20
2022-10-03T19:55:59.663Z,73.30
2022-10-03T19:59:52.039Z,72.30
2022-10-03T20:03:45.147Z,73.00
2022-10-03T20:07:36.168Z,73.40
2022-10-03T20:11:43.441Z,72.60
2022-10-03T20:15:26.598Z,75.10
2022-10-03T20:19:21.970Z,72.50
2022-10-03T20:23:07.051Z,74.10
2022-10-03T20:27:21.825Z,72.80
2022-10-03T20:31:04.846Z,75.40
2022-10-03T20:34:54.562Z,73.00
2022-10-03T20:38:42.373Z,74.10
2022-10-03T20:42:29.946Z,73.40
2022-10-03T20:46:34.739Z,73.40
2022-10-03T20:50:25.774Z,75.40
2022-10-03T20:54:17.048Z,73.60
2022-10-03T20:58:01.920Z,74.30
2022-10-03T21:01:47.575Z,73.30
2022-10-03T21:05:37.168Z,73.40
2022-10-03T21:09:25.194Z,74.40
2022-10-03T21:13:25.538Z,73.60
2022-10-03T21:17:16.366Z,75.60
2022-10-03T21:21:05.165Z,74.60
2022-10-03T21:24:56.989Z,74.30
2022-10-03T21:28:39.250Z,74.80
2022-10-03T21:32:43.117Z,74.20
2022-10-03T21:36:45.893Z,76.00
2022-10-03T21:40:36.779Z,76.40
2022-10-03T21:44:45.205Z,74.30
2022-10-03T21:48:58.124Z,76.40
2022-10-03T21:53:07.520Z,75.90
2022-10-03T21:57:27.968Z,76.60
2022-10-03T22:01:46.499Z,76.60
2022-10-03T22:05:40.729Z,76.60
2022-10-03T22:09:22.981Z,75.20
2022-10-03T22:13:09.848Z,74.30
2022-10-03T22:16:56.284Z,74.90
2022-10-03T22:20:59.191Z,75.10
2022-10-03T22:24:53.583Z,76.20
2022-10-03T22:28:35.533Z,75.00
2022-10-03T22:32:41.364Z,75.20
2022-10-03T22:36:23.771Z,77.70
2022-10-03T22:40:06.898Z,75.40
2022-10-03T22:43:50.096Z,75.60
2022-10-03T22:47:34.972Z,75.80
2022-10-03T22:51:19.800Z,76.10
2022-10-03T22:55:04.831Z,76.00
2022-10-03T22:58:47.131Z,76.30
2022-10-03T23:02:36.976Z,76.70
2022-10-03T23:06:51.015Z,77.60
2022-10-03T23:10:57.226Z,79.50
2022-10-03T23:14:44.371Z,79.50
2022-10-03T23:19:09.575Z,77.20
2022-10-03T23:22:56.389Z,79.20
2022-10-03T23:27:00.248Z,76.50
2022-10-03T23:30:48.515Z,79.00
2022-10-03T23:34:36.862Z,77.40
2022-10-03T23:38:34.169Z,78.00
2022-10-03T23:42:31.595Z,79.20
2022-10-03T23:46:18.075Z,79.30
2022-10-03T23:50:02.941Z,77.80
2022-10-03T23:53:48.250Z,77.70
2022-10-03T23:57:42.625Z,77.80
